Time;durP1;ratioP1;P1;durP2;ratioP2;P2;SDS_P1;SDS_P2;PMS_P1;PMS_P2;Temp;Humidity;BMP_temperature;BMP_pressure;BME280_temperature;BME280_humidity;BME280_pressure;Samples;Min_cycle;Max_cycle;Signal;HPM_P1;HPM_P2
2021/07/09 00:01:30;;;;;;;5.70;3.90;;;;;;;20.62;70.09;100415.65;1747050;82;22220;-71
2021/07/09 00:03:57;;;;;;;11.05;3.80;;;;;;;20.55;70.10;100414.91;1746888;82;21001;-71
2021/07/09 00:06:23;;;;;;;6.28;3.30;;;;;;;20.48;70.26;100418.95;1746893;82;20988;-72
2021/07/09 00:08:53;;;;;;;5.47;3.60;;;;;;;20.41;70.67;100418.20;1721899;82;21035;-71
2021/07/09 00:11:21;;;;;;;6.20;3.30;;;;;;;20.36;71.25;100421.86;1747621;82;21109;-71
2021/07/09 00:13:51;;;;;;;6.40;3.95;;;;;;;20.33;71.63;100413.63;1746984;82;21032;-71
2021/07/09 00:16:19;;;;;;;11.12;3.77;;;;;;;20.32;71.72;100416.19;1746694;82;21568;-71
2021/07/09 00:18:48;;;;;;;6.95;4.10;;;;;;;20.32;71.84;100416.19;1746973;82;21512;-70
2021/07/09 00:21:15;;;;;;;7.70;3.83;;;;;;;20.31;71.85;100411.20;1747633;82;21009;-70
2021/07/09 00:23:44;;;;;;;7.85;4.00;;;;;;;20.29;71.97;100414.94;1746606;82;21025;-71
2021/07/09 00:26:10;;;;;;;10.63;3.87;;;;;;;20.25;72.25;100411.84;1730319;81;21079;-71
2021/07/09 00:28:37;;;;;;;5.72;3.47;;;;;;;20.21;72.32;100409.55;1746924;81;21040;-70
2021/07/09 00:31:03;;;;;;;6.12;3.70;;;;;;;20.16;72.30;100411.44;1746739;82;21553;-71
2021/07/09 00:33:29;;;;;;;8.23;3.77;;;;;;;20.13;72.22;100402.38;1746728;82;21075;-71
2021/07/09 00:35:56;;;;;;;7.83;4.25;;;;;;;20.13;72.23;100408.58;1747459;82;21470;-72
2021/07/09 00:38:22;;;;;;;6.72;4.37;;;;;;;20.13;72.15;100412.17;1739838;81;21550;-70
2021/07/09 00:40:50;;;;;;;9.23;4.42;;;;;;;20.14;71.93;100406.81;1739817;82;21063;-71
2021/07/09 00:43:16;;;;;;;6.10;3.70;;;;;;;20.11;71.94;100401.95;1738581;82;21008;-71
2021/07/09 00:45:43;;;;;;;11.30;4.25;;;;;;;20.08;71.92;100402.66;1739444;82;21508;-71
2021/07/09 00:48:09;;;;;;;8.68;3.87;;;;;;;20.03;72.19;100395.92;1740158;82;21196;-71
2021/07/09 00:50:35;;;;;;;8.25;3.85;;;;;;;19.98;72.33;100397.63;1740212;82;21081;-71
2021/07/09 00:53:06;;;;;;;6.03;3.55;;;;;;;19.93;72.47;100397.30;1749394;81;21499;-71
2021/07/09 00:55:36;;;;;;;11.28;4.20;;;;;;;19.86;73.02;100402.13;1756171;81;21002;-71
2021/07/09 00:58:05;;;;;;;6.00;3.80;;;;;;;19.81;73.22;100402.41;1749847;81;21041;-72
2021/07/09 01:00:32;;;;;;;7.75;3.40;;;;;;;19.78;73.58;100404.53;1691826;82;21636;-71
2021/07/09 01:02:58;;;;;;;9.23;4.35;;;;;;;19.74;73.61;100403.64;1740788;82;21010;-70
2021/07/09 01:05:27;;;;;;;7.62;3.95;;;;;;;19.69;73.67;100405.53;1738999;82;21012;-70
2021/07/09 01:07:53;;;;;;;5.33;3.42;;;;;;;19.66;73.68;100402.06;1737246;82;20985;-70
2021/07/09 01:10:21;;;;;;;8.55;3.87;;;;;;;19.66;73.60;100402.64;1741738;82;21062;-70
2021/07/09 01:12:49;;;;;;;6.80;3.62;;;;;;;19.64;73.23;100393.22;1740850;82;21039;-70
2021/07/09 01:15:18;;;;;;;9.75;4.40;;;;;;;19.63;73.39;100391.61;1715855;82;21052;-70
2021/07/09 01:17:48;;;;;;;7.70;3.50;;;;;;;19.63;73.24;100394.41;1741104;79;21021;-71
2021/07/09 01:20:16;;;;;;;7.65;3.80;;;;;;;19.62;73.32;100389.97;1737831;82;21048;-70
2021/07/09 01:22:45;;;;;;;5.72;3.50;;;;;;;19.62;73.25;100392.77;1736637;82;21103;-70
2021/07/09 01:25:26;;;;;;;8.30;4.00;;;;;;;19.59;73.53;100392.09;1739191;82;21283;-70
2021/07/09 01:28:03;;;;;;;7.15;3.77;;;;;;;19.55;73.95;100392.61;1739451;82;21065;-70
2021/07/09 01:30:30;;;;;;;7.53;3.50;;;;;;;19.49;74.17;100387.05;1741125;81;21012;-70
2021/07/09 01:32:58;;;;;;;9.20;4.33;;;;;;;19.44;74.35;100388.95;1739753;82;21013;-70
2021/07/09 01:35:27;;;;;;;7.83;3.67;;;;;;;19.45;74.31;100387.77;1743715;82;21070;-70
2021/07/09 01:38:09;;;;;;;8.28;3.30;;;;;;;19.45;74.22;100386.37;1741380;80;21881;-71
2021/07/09 01:40:37;;;;;;;8.20;3.37;;;;;;;19.48;74.02;100392.42;1744692;82;21525;-71
2021/07/09 01:43:04;;;;;;;9.30;4.12;;;;;;;19.49;74.10;100390.66;1747320;82;21052;-70
2021/07/09 01:45:30;;;;;;;13.08;3.52;;;;;;;19.48;73.78;100384.03;1748445;82;21502;-70
2021/07/09 01:47:57;;;;;;;8.00;3.65;;;;;;;19.43;73.91;100381.72;1747925;82;21513;-71
2021/07/09 01:50:26;;;;;;;9.35;3.85;;;;;;;19.40;74.12;100385.81;1747698;82;21048;-70
2021/07/09 01:52:53;;;;;;;10.80;3.80;;;;;;;19.39;74.11;100383.63;1747156;81;20992;-71
2021/07/09 01:55:22;;;;;;;9.95;3.47;;;;;;;19.37;73.96;100384.57;1752181;81;21015;-71
2021/07/09 01:57:50;;;;;;;8.05;3.50;;;;;;;19.36;74.17;100383.53;1746776;82;21088;-70
2021/07/09 02:00:22;;;;;;;9.10;3.72;;;;;;;19.34;74.31;100389.48;1742067;82;21032;-70
2021/07/09 02:02:49;;;;;;;9.13;3.40;;;;;;;19.33;74.09;100381.68;1747161;82;21549;-71
2021/07/09 02:05:18;;;;;;;8.33;3.67;;;;;;;19.30;74.14;100387.99;1747190;82;21041;-71
2021/07/09 02:07:46;;;;;;;7.42;4.28;;;;;;;19.25;74.14;100386.03;1747581;82;21123;-71
2021/07/09 02:10:13;;;;;;;31.37;4.67;;;;;;;19.22;74.30;100390.38;1747150;80;21007;-71
2021/07/09 02:12:40;;;;;;;13.70;3.80;;;;;;;19.14;74.66;100385.77;1746842;81;21036;-70
2021/07/09 02:15:11;;;;;;;6.28;2.72;;;;;;;19.12;74.85;100389.50;1747528;82;21913;-71
2021/07/09 02:17:40;;;;;;;6.05;3.30;;;;;;;19.11;74.84;100388.67;1738275;80;21000;-70
2021/07/09 02:20:10;;;;;;;6.90;3.22;;;;;;;19.13;74.67;100389.14;1747353;82;21052;-69
2021/07/09 02:22:36;;;;;;;7.70;3.20;;;;;;;19.16;74.34;100395.97;1743602;82;21489;-70
2021/07/09 02:25:05;;;;;;;8.28;3.17;;;;;;;19.12;74.52;100393.11;1747496;82;21013;-70
2021/07/09 02:27:38;;;;;;;9.83;3.62;;;;;;;19.08;74.50;100396.34;1747812;82;21072;-70
2021/07/09 02:30:08;;;;;;;8.93;3.55;;;;;;;19.05;74.43;100402.66;1747036;82;21048;-70
2021/07/09 02:32:42;;;;;;;7.47;3.50;;;;;;;19.02;74.54;100402.77;1743226;82;21065;-70
2021/07/09 02:35:11;;;;;;;5.62;3.17;;;;;;;19.00;74.55;100408.49;1747036;82;21122;-70
2021/07/09 02:37:39;;;;;;;8.90;3.33;;;;;;;19.00;74.70;100408.49;1743451;79;21092;-70
2021/07/09 02:40:12;;;;;;;5.95;3.65;;;;;;;18.99;74.86;100403.48;1740981;81;21077;-69
2021/07/09 02:42:44;;;;;;;6.30;3.55;;;;;;;19.00;75.16;100403.73;1735564;82;21052;-70
2021/07/09 02:45:14;;;;;;;8.53;3.22;;;;;;;19.05;75.27;100402.66;1741069;82;21103;-70
2021/07/09 02:47:44;;;;;;;7.30;3.62;;;;;;;19.08;75.36;100400.54;1741639;81;21042;-70
2021/07/09 02:50:17;;;;;;;9.85;3.62;;;;;;;19.09;75.61;100392.38;1739476;82;21493;-70
2021/07/09 02:52:45;;;;;;;11.97;3.47;;;;;;;19.11;75.74;100395.66;1744233;81;21501;-69
2021/07/09 02:55:12;;;;;;;9.85;3.45;;;;;;;19.13;75.81;100398.91;1740777;82;21272;-69
2021/07/09 02:57:41;;;;;;;10.05;3.50;;;;;;;19.13;75.93;100390.53;1737697;82;21513;-69
2021/07/09 03:00:14;;;;;;;9.15;3.47;;;;;;;19.12;76.30;100389.50;1739287;82;21071;-69
2021/07/09 03:02:43;;;;;;;6.75;3.35;;;;;;;19.15;76.29;100395.19;1737364;82;21512;-70
2021/07/09 03:05:11;;;;;;;12.25;4.33;;;;;;;19.20;76.09;100393.53;1740811;81;21896;-69
2021/07/09 03:07:38;;;;;;;8.08;3.58;;;;;;;19.23;76.22;100398.97;1737521;82;21052;-71
2021/07/09 03:10:06;;;;;;;13.08;4.12;;;;;;;19.26;76.38;100393.27;1740187;82;21035;-70
2021/07/09 03:12:32;;;;;;;10.35;3.52;;;;;;;19.27;76.52;100397.09;1742579;82;21060;-70
2021/07/09 03:14:59;;;;;;;18.05;4.33;;;;;;;19.30;76.70;100398.34;1737444;82;21080;-70
2021/07/09 03:17:26;;;;;;;12.45;3.40;;;;;;;19.32;76.85;100399.63;1738832;82;21493;-70
2021/07/09 03:19:52;;;;;;;7.95;3.27;;;;;;;19.33;77.03;100397.05;1741087;82;21130;-70
2021/07/09 03:22:20;;;;;;;8.80;2.87;;;;;;;19.36;77.21;100389.13;1739541;82;21445;-70
2021/07/09 03:24:47;;;;;;;8.65;3.52;;;;;;;19.39;77.57;100393.41;1739478;82;21039;-70
2021/07/09 03:27:15;;;;;;;6.97;3.15;;;;;;;19.45;77.47;100389.17;1738425;82;21130;-70
2021/07/09 03:29:41;;;;;;;10.15;3.65;;;;;;;19.50;77.28;100389.48;1740699;82;21154;-70
2021/07/09 03:32:09;;;;;;;10.38;3.70;;;;;;;19.52;77.35;100394.13;1728214;82;21772;-70
2021/07/09 03:34:37;;;;;;;12.55;4.10;;;;;;;19.55;77.30;100396.20;1741105;82;21624;-70
2021/07/09 03:37:05;;;;;;;10.13;3.90;;;;;;;19.55;77.21;100396.20;1741160;82;21025;-70
2021/07/09 03:39:33;;;;;;;6.20;3.77;;;;;;;19.59;77.54;100396.29;1738140;81;21092;-71
2021/07/09 03:42:02;;;;;;;8.00;5.05;;;;;;;19.66;77.59;100395.66;1738717;82;20981;-71
2021/07/09 03:44:32;;;;;;;10.63;2.87;;;;;;;19.72;77.51;100396.99;1731066;82;21096;-70
2021/07/09 03:46:58;;;;;;;13.38;3.05;;;;;;;19.81;77.73;100394.02;1730709;82;21028;-70
2021/07/09 03:49:26;;;;;;;8.58;2.72;;;;;;;19.94;77.53;100397.53;1738142;82;21010;-69
2021/07/09 03:51:53;;;;;;;7.92;2.72;;;;;;;20.06;77.47;100400.84;1733954;82;21015;-70
2021/07/09 03:54:20;;;;;;;7.00;2.42;;;;;;;20.19;77.00;100403.73;1732820;82;21536;-70
2021/07/09 03:56:46;;;;;;;5.30;2.17;;;;;;;20.33;75.90;100409.42;1708686;82;20997;-70
2021/07/09 03:59:13;;;;;;;7.75;2.05;;;;;;;20.45;74.29;100409.89;1733296;82;21057;-71
2021/07/09 04:01:41;;;;;;;6.78;2.72;;;;;;;20.61;72.49;100404.21;1732387;82;21068;-71
2021/07/09 04:04:08;;;;;;;10.88;1.87;;;;;;;20.77;70.99;100401.94;1704593;82;21026;-72
2021/07/09 04:06:36;;;;;;;10.75;2.67;;;;;;;20.92;69.46;100402.44;1728609;82;21157;-71
2021/07/09 04:09:07;;;;;;;5.60;2.40;;;;;;;21.07;68.79;100399.14;1728252;82;21010;-71
2021/07/09 04:11:34;;;;;;;18.17;3.30;;;;;;;21.19;68.32;100405.17;1733710;82;21111;-71
2021/07/09 04:14:01;;;;;;;8.75;2.47;;;;;;;21.28;67.58;100406.54;1728066;82;21045;-70
2021/07/09 04:16:30;;;;;;;8.78;3.22;;;;;;;21.38;66.55;100408.49;1729673;82;21045;-70
2021/07/09 04:18:58;;;;;;;21.27;4.45;;;;;;;21.48;66.45;100409.86;1730489;82;21059;-70
2021/07/09 04:21:25;;;;;;;23.90;4.50;;;;;;;21.58;65.78;100409.23;1731824;82;20993;-70
2021/07/09 04:23:52;;;;;;;15.85;4.35;;;;;;;21.65;65.72;100405.16;1728808;82;21615;-70
2021/07/09 04:26:18;;;;;;;17.87;3.50;;;;;;;21.72;65.41;100410.08;1730878;82;21017;-71
2021/07/09 04:28:45;;;;;;;4.45;2.60;;;;;;;21.81;64.48;100407.63;1733939;82;21157;-70
2021/07/09 04:31:12;;;;;;;4.67;2.58;;;;;;;21.87;63.95;100402.73;1737192;82;21091;-70
2021/07/09 04:33:43;;;;;;;7.03;2.90;;;;;;;21.95;62.71;100407.88;1728702;82;21490;-71
2021/07/09 04:36:10;;;;;;;10.93;2.52;;;;;;;22.04;62.93;100407.58;1732074;82;21537;-70
2021/07/09 04:38:37;;;;;;;6.30;2.65;;;;;;;22.12;62.19;100407.11;1734467;82;21099;-69
2021/07/09 04:41:05;;;;;;;5.53;3.05;;;;;;;22.21;62.34;100408.24;1741981;80;21102;-70
2021/07/09 04:43:32;;;;;;;9.53;3.08;;;;;;;22.29;61.39;100410.55;1741173;80;21223;-70
2021/07/09 04:46:05;;;;;;;8.58;2.72;;;;;;;22.36;60.48;100412.05;1739981;82;21173;-70
2021/07/09 04:48:33;;;;;;;6.25;2.45;;;;;;;22.43;59.70;100409.36;1737062;82;21023;-70
2021/07/09 04:51:02;;;;;;;11.18;3.37;;;;;;;22.50;59.87;100409.42;1742500;82;21614;-69
2021/07/09 04:53:32;;;;;;;7.65;2.80;;;;;;;22.60;59.98;100409.34;1721776;82;21079;-70
2021/07/09 04:56:05;;;;;;;9.70;2.83;;;;;;;22.67;59.82;100415.67;1738339;82;21897;-70
2021/07/09 04:58:34;;;;;;;9.45;2.72;;;;;;;22.74;59.33;100414.95;1738033;82;21009;-70
2021/07/09 05:01:02;;;;;;;5.55;2.65;;;;;;;22.81;59.19;100413.64;1737321;82;21036;-70
2021/07/09 05:03:30;;;;;;;9.65;3.83;;;;;;;22.89;58.28;100415.14;1737883;82;20997;-71
2021/07/09 05:05:57;;;;;;;16.48;3.62;;;;;;;22.95;57.85;100417.22;1738966;82;21592;-71
2021/07/09 05:08:24;;;;;;;8.65;2.92;;;;;;;23.01;57.04;100420.51;1737656;82;21135;-70
2021/07/09 05:10:50;;;;;;;6.83;2.75;;;;;;;23.08;56.91;100425.40;1742260;81;21010;-69
2021/07/09 05:13:17;;;;;;;5.85;2.50;;;;;;;23.14;56.39;100416.01;1737418;82;21594;-70
2021/07/09 05:15:47;;;;;;;7.40;2.58;;;;;;;23.21;56.23;100411.28;1735936;82;21072;-70
2021/07/09 05:18:17;;;;;;;10.32;2.67;;;;;;;23.29;56.21;100412.74;1703045;84;21076;-69
2021/07/09 05:20:50;;;;;;;9.45;2.58;;;;;;;23.39;56.53;100415.47;1734061;82;21532;-71
2021/07/09 05:23:19;;;;;;;11.20;3.12;;;;;;;23.48;56.17;100414.56;1737535;82;21013;-70
2021/07/09 05:25:46;;;;;;;8.78;2.50;;;;;;;23.56;54.53;100412.02;1736717;82;21051;-69
2021/07/09 05:28:12;;;;;;;5.65;2.67;;;;;;;23.66;54.21;100416.11;1739844;82;22032;-68
2021/07/09 05:30:39;;;;;;;13.13;2.40;;;;;;;23.73;54.30;100413.17;1740876;82;21083;-68
2021/07/09 05:33:09;;;;;;;6.25;2.70;;;;;;;23.78;53.73;100410.79;1740032;81;21064;-71
2021/07/09 05:35:45;;;;;;;7.83;2.65;;;;;;;23.86;53.27;100408.86;1737841;82;20966;-69
2021/07/09 05:38:13;;;;;;;6.37;2.37;;;;;;;23.93;52.84;100408.09;1740246;80;21024;-69
2021/07/09 05:40:42;;;;;;;13.45;2.65;;;;;;;23.99;52.55;100415.55;1703577;82;21530;-70
2021/07/09 05:43:11;;;;;;;7.55;3.35;;;;;;;23.99;52.32;100407.93;1685512;85;21012;-70
2021/07/09 05:45:40;;;;;;;9.15;2.40;;;;;;;24.04;53.10;100406.16;1682024;85;21975;-70
2021/07/09 05:48:08;;;;;;;12.80;3.08;;;;;;;24.10;52.98;100408.02;1682591;85;21094;-70
2021/07/09 05:50:37;;;;;;;13.95;2.85;;;;;;;24.18;52.36;100406.07;1684634;85;21167;-69
2021/07/09 05:53:03;;;;;;;6.33;2.10;;;;;;;24.26;52.00;100411.16;1684502;85;21000;-67
2021/07/09 05:55:30;;;;;;;5.75;2.00;;;;;;;24.31;52.08;100403.72;1684938;85;21635;-69
2021/07/09 05:57:58;;;;;;;8.48;2.20;;;;;;;24.34;50.95;100406.36;1682927;85;21153;-69
2021/07/09 06:00:25;;;;;;;9.43;2.58;;;;;;;24.37;50.40;100402.75;1680513;85;21121;-68
2021/07/09 06:02:51;;;;;;;6.28;2.62;;;;;;;24.44;50.94;100399.98;1682200;84;21028;-70
2021/07/09 06:05:18;;;;;;;8.50;2.58;;;;;;;24.52;50.92;100399.40;1683843;84;21060;-69
2021/07/09 06:07:45;;;;;;;9.65;2.12;;;;;;;24.61;50.89;100401.86;1682955;84;21630;-66
2021/07/09 06:10:14;;;;;;;7.65;2.10;;;;;;;24.67;50.11;100404.48;1706903;84;22474;-69
2021/07/09 06:12:43;;;;;;;6.10;2.05;;;;;;;24.75;50.49;100407.56;1677475;85;21078;-69
2021/07/09 06:15:11;;;;;;;4.62;1.98;;;;;;;24.80;50.20;100409.18;1684369;85;21059;-69
2021/07/09 06:17:37;;;;;;;6.35;2.17;;;;;;;24.88;49.69;100408.00;1726079;82;21117;-68
2021/07/09 06:20:07;;;;;;;8.43;2.10;;;;;;;24.97;50.20;100398.38;1732516;81;21582;-69
2021/07/09 06:22:33;;;;;;;4.00;1.90;;;;;;;25.06;50.11;100405.05;1726807;82;21750;-69
2021/07/09 06:25:00;;;;;;;5.08;2.42;;;;;;;25.13;50.03;100399.44;1735324;82;21033;-69
2021/07/09 06:27:27;;;;;;;9.58;2.95;;;;;;;25.22;49.84;100404.08;1729724;82;21553;-69
2021/07/09 06:29:54;;;;;;;8.23;2.60;;;;;;;25.30;49.36;100404.88;1728603;82;21095;-70
2021/07/09 06:32:21;;;;;;;12.07;2.40;;;;;;;25.37;48.93;100400.66;1735368;82;22084;-71
2021/07/09 06:34:47;;;;;;;10.95;2.20;;;;;;;25.46;48.28;100403.69;1733679;82;21565;-69
2021/07/09 06:37:17;;;;;;;9.40;1.80;;;;;;;25.52;48.15;100401.47;1691612;82;21087;-69
2021/07/09 06:39:47;;;;;;;3.72;2.00;;;;;;;25.59;47.96;100405.52;1736820;82;21061;-69
2021/07/09 06:42:13;;;;;;;2.87;1.70;;;;;;;25.65;47.93;100398.29;1746850;81;21517;-69
2021/07/09 06:44:39;;;;;;;8.83;2.02;;;;;;;25.71;47.43;100405.75;1747127;82;21036;-69
2021/07/09 06:47:06;;;;;;;7.05;1.65;;;;;;;25.76;47.84;100400.48;1747227;82;21558;-69
2021/07/09 06:49:32;;;;;;;9.63;1.87;;;;;;;25.82;46.85;100402.91;1746699;82;21012;-69
2021/07/09 06:52:01;;;;;;;3.20;1.72;;;;;;;25.88;46.38;100399.87;1747696;82;21044;-70
2021/07/09 06:54:27;;;;;;;6.90;1.42;;;;;;;25.93;46.19;100400.09;1747024;81;21062;-68
2021/07/09 06:56:55;;;;;;;4.33;1.50;;;;;;;25.98;46.19;100399.67;1746851;82;21543;-69
2021/07/09 06:59:21;;;;;;;6.87;1.65;;;;;;;26.05;45.72;100397.45;1746963;82;21102;-70
2021/07/09 07:01:49;;;;;;;3.85;1.60;;;;;;;26.11;45.61;100400.05;1746526;82;21020;-69
2021/07/09 07:04:15;;;;;;;2.08;1.40;;;;;;;26.18;46.38;100400.03;1746097;82;21029;-70
2021/07/09 07:06:42;;;;;;;2.35;1.75;;;;;;;26.25;44.59;100404.86;1747158;82;21521;-70
2021/07/09 07:09:10;;;;;;;3.27;1.55;;;;;;;26.31;44.70;100406.03;1742802;82;21072;-69
2021/07/09 07:11:38;;;;;;;2.42;1.62;;;;;;;26.40;44.37;100399.18;1747648;82;21526;-69
2021/07/09 07:14:06;;;;;;;6.40;1.72;;;;;;;26.45;43.31;100395.34;1746851;81;21029;-70
2021/07/09 07:16:38;;;;;;;3.17;1.57;;;;;;;26.49;42.79;100397.52;1747100;81;21048;-71
2021/07/09 07:19:04;;;;;;;7.10;2.10;;;;;;;26.57;43.29;100401.73;1746845;82;20997;-70
2021/07/09 07:21:32;;;;;;;2.85;1.52;;;;;;;26.65;42.94;100397.66;1739608;81;21037;-70
2021/07/09 07:24:02;;;;;;;2.62;1.90;;;;;;;26.72;42.29;100393.41;1747368;82;21077;-71
2021/07/09 07:26:29;;;;;;;2.65;1.30;;;;;;;26.82;42.99;100396.56;1747413;81;21057;-70
2021/07/09 07:28:55;;;;;;;2.27;1.40;;;;;;;26.91;41.63;100395.52;1745470;81;21262;-71
2021/07/09 07:31:22;;;;;;;4.92;1.37;;;;;;;26.97;40.42;100392.45;1746986;81;21084;-70
2021/07/09 07:33:50;;;;;;;4.75;1.30;;;;;;;27.06;40.72;100385.55;1747225;82;21051;-70
2021/07/09 07:36:17;;;;;;;2.10;1.12;;;;;;;27.12;40.36;100383.92;1747387;81;21510;-69
2021/07/09 07:38:47;;;;;;;3.58;1.57;;;;;;;27.17;39.97;100379.84;1747075;82;21560;-69
2021/07/09 07:41:15;;;;;;;3.75;1.40;;;;;;;27.22;39.52;100372.33;1734409;80;21040;-70
2021/07/09 07:43:43;;;;;;;3.08;1.35;;;;;;;27.27;41.06;100369.06;1742601;82;22045;-70
2021/07/09 07:46:12;;;;;;;9.58;1.87;;;;;;;27.34;41.04;100364.77;1741908;81;21102;-69
2021/07/09 07:48:38;;;;;;;7.35;1.90;;;;;;;27.41;39.13;100365.33;1735862;82;21624;-69
2021/07/09 07:51:08;;;;;;;6.53;1.62;;;;;;;27.46;39.65;100371.95;1739897;82;21440;-71
2021/07/09 07:53:40;;;;;;;6.62;1.47;;;;;;;27.53;39.11;100368.26;1738896;82;21072;-71
2021/07/09 07:56:10;;;;;;;3.10;1.20;;;;;;;27.60;38.71;100365.98;1741417;82;21013;-70
2021/07/09 07:58:40;;;;;;;10.90;1.82;;;;;;;27.66;38.17;100366.30;1737762;82;21044;-71
2021/07/09 08:01:08;;;;;;;2.83;1.60;;;;;;;27.72;37.44;100368.11;1738446;82;21978;-72
2021/07/09 08:03:37;;;;;;;12.00;2.25;;;;;;;27.69;37.64;100373.38;1742682;80;20982;-70
2021/07/09 08:06:04;;;;;;;3.12;1.50;;;;;;;27.70;36.10;100370.77;1742477;82;21083;-70
2021/07/09 08:08:33;;;;;;;11.78;2.10;;;;;;;27.56;37.57;100363.17;1744289;81;21072;-70
2021/07/09 08:11:00;;;;;;;14.38;1.82;;;;;;;27.56;38.58;100371.66;1742950;82;21099;-71
2021/07/09 08:13:29;;;;;;;2.60;1.42;;;;;;;27.64;38.90;100363.90;1741998;82;21087;-71
2021/07/09 08:15:55;;;;;;;5.60;1.77;;;;;;;27.74;38.51;100365.05;1714451;82;21049;-72
2021/07/09 08:18:23;;;;;;;12.95;1.72;;;;;;;27.83;39.26;100354.65;1743425;82;21043;-70
2021/07/09 08:20:50;;;;;;;2.83;1.32;;;;;;;27.94;38.89;100357.38;1742259;82;21072;-69
2021/07/09 08:23:19;;;;;;;3.08;1.47;;;;;;;28.02;39.07;100356.08;1736228;82;21028;-71
2021/07/09 08:25:48;;;;;;;4.90;1.62;;;;;;;28.11;39.06;100359.83;1737149;81;21052;-71
2021/07/09 08:28:14;;;;;;;2.52;1.30;;;;;;;28.15;37.49;100347.83;1740273;82;21529;-70
2021/07/09 08:30:43;;;;;;;3.35;1.50;;;;;;;28.18;37.04;100348.39;1738082;82;21025;-70
2021/07/09 08:33:09;;;;;;;3.52;1.40;;;;;;;28.22;36.68;100345.52;1730713;82;21568;-71
2021/07/09 08:35:38;;;;;;;10.45;1.50;;;;;;;28.26;36.81;100339.82;1716731;82;22059;-70
2021/07/09 08:38:04;;;;;;;1.98;1.70;;;;;;;28.30;37.79;100342.79;1736620;82;20990;-70
2021/07/09 08:40:31;;;;;;;9.83;2.12;;;;;;;28.35;36.39;100333.08;1737024;81;21057;-71
2021/07/09 08:43:01;;;;;;;4.25;1.85;;;;;;;28.40;36.86;100340.29;1732769;82;21032;-69
2021/07/09 08:45:32;;;;;;;4.03;1.98;;;;;;;28.49;37.73;100334.89;1734178;82;21069;-70
2021/07/09 08:47:58;;;;;;;1.75;1.42;;;;;;;28.59;36.71;100329.52;1739491;82;21028;-71
2021/07/09 08:50:27;;;;;;;3.50;1.70;;;;;;;28.66;36.26;100336.52;1731894;82;22128;-70
2021/07/09 08:52:53;;;;;;;8.68;1.62;;;;;;;28.71;35.45;100333.81;1734040;82;21032;-70
2021/07/09 08:55:20;;;;;;;7.60;1.60;;;;;;;28.72;35.37;100324.06;1734732;82;21081;-70
2021/07/09 08:57:49;;;;;;;6.22;1.50;;;;;;;28.72;35.29;100321.23;1740216;82;21494;-71
2021/07/09 09:00:41;;;;;;;3.87;1.80;;;;;;;28.71;35.35;100320.45;1738953;82;21141;-71
2021/07/09 09:03:22;;;;;;;5.50;1.75;;;;;;;28.76;36.13;100313.49;1713567;82;21069;-70
2021/07/09 09:05:59;;;;;;;2.92;1.55;;;;;;;28.85;36.41;100315.16;1730598;82;21509;-71
2021/07/09 09:08:24;;;;;;;2.37;1.82;;;;;;;28.94;37.36;100315.23;1732734;81;21466;-70
2021/07/09 09:10:59;;;;;;;3.85;1.40;;;;;;;29.00;37.21;100316.40;1731674;82;21041;-71
2021/07/09 09:13:37;;;;;;;2.92;1.47;;;;;;;29.07;35.91;100314.84;1730550;82;21044;-70
2021/07/09 09:16:16;;;;;;;1.75;1.42;;;;;;;29.13;36.62;100314.56;1732132;82;21465;-71
2021/07/09 09:18:45;;;;;;;2.92;1.85;;;;;;;29.23;35.61;100316.22;1704964;83;21142;-71
2021/07/09 09:21:20;;;;;;;6.00;1.50;;;;;;;29.24;35.96;100311.53;1677556;85;21023;-71
2021/07/09 09:23:54;;;;;;;1.85;1.20;;;;;;;29.27;35.44;100309.88;1682991;85;21663;-69
2021/07/09 09:26:46;;;;;;;5.75;1.90;;;;;;;29.33;35.69;100308.14;1673714;85;21009;-72
2021/07/09 09:29:30;;;;;;;4.40;1.47;;;;;;;29.38;35.66;100309.07;1677100;85;21113;-71
2021/07/09 09:32:03;;;;;;;9.45;2.20;;;;;;;29.43;35.72;100306.98;1676975;85;21040;-70
2021/07/09 09:34:48;;;;;;;2.02;1.45;;;;;;;29.44;36.94;100309.39;1682324;85;22478;-72
2021/07/09 09:37:28;;;;;;;2.90;1.65;;;;;;;29.48;36.05;100315.00;1731083;82;21045;-70
2021/07/09 09:39:52;;;;;;;3.70;1.52;;;;;;;29.48;34.97;100310.11;1723021;82;21108;-71
2021/07/09 09:42:25;;;;;;;1.98;1.60;;;;;;;29.50;35.54;100305.41;1742382;82;21496;-70
2021/07/09 09:45:03;;;;;;;3.33;1.67;;;;;;;29.52;34.18;100300.12;1740872;81;21606;-70
2021/07/09 09:47:36;;;;;;;7.78;1.70;;;;;;;29.34;34.92;100296.19;1741060;82;21024;-70
2021/07/09 09:50:12;;;;;;;2.27;1.40;;;;;;;29.26;36.00;100297.73;1743344;81;21024;-71
2021/07/09 09:52:53;;;;;;;7.03;1.40;;;;;;;29.34;35.30;100295.58;1737755;82;21039;-71
2021/07/09 09:55:23;;;;;;;3.75;1.72;;;;;;;29.42;36.15;100286.92;1737224;82;21126;-70
2021/07/09 09:58:14;;;;;;;2.45;1.57;;;;;;;29.49;37.11;100288.22;1707679;82;21004;-71
2021/07/09 10:00:45;;;;;;;4.30;1.40;;;;;;;29.59;36.62;100287.83;1742230;82;21099;-71
2021/07/09 10:03:13;;;;;;;2.65;1.72;;;;;;;29.66;36.33;100286.31;1724245;82;21128;-71
2021/07/09 10:05:44;;;;;;;9.95;1.62;;;;;;;29.76;35.66;100289.56;1736210;82;21496;-70
2021/07/09 10:08:17;;;;;;;4.72;1.47;;;;;;;29.83;35.19;100284.97;1740524;80;21020;-72
2021/07/09 10:10:49;;;;;;;5.58;1.50;;;;;;;29.91;35.36;100285.64;1707977;81;21015;-69
2021/07/09 10:13:23;;;;;;;3.40;1.47;;;;;;;29.99;34.43;100286.46;1742273;82;21002;-70
2021/07/09 10:15:58;;;;;;;6.45;1.90;;;;;;;30.04;35.02;100287.20;1730756;82;21513;-71
2021/07/09 10:18:26;;;;;;;3.22;1.80;;;;;;;30.10;34.69;100276.92;1743048;82;21525;-72
2021/07/09 10:20:57;;;;;;;2.80;1.20;;;;;;;30.13;35.47;100279.69;1739457;81;21069;-71
2021/07/09 10:23:23;;;;;;;6.90;1.57;;;;;;;30.21;36.48;100275.31;1741043;82;21492;-70
2021/07/09 10:25:51;;;;;;;4.62;1.77;;;;;;;30.28;35.22;100269.48;1741130;81;21561;-71
2021/07/09 10:28:22;;;;;;;4.45;1.47;;;;;;;30.30;36.11;100270.46;1738188;81;21107;-71
2021/07/09 10:30:54;;;;;;;;;;;;;;;30.36;36.87;100265.23;1689891;84;21532;-70
2021/07/09 10:33:36;;;;;;;4.35;1.60;;;;;;;30.47;37.19;100258.52;1686016;84;20140;-71
2021/07/09 10:36:28;;;;;;;;;;;;;;;30.51;35.56;100256.38;1688570;84;21484;-69
2021/07/09 10:39:00;;;;;;;3.37;1.70;;;;;;;30.49;36.94;100252.55;1683631;85;20199;-69
2021/07/09 10:41:29;;;;;;;3.33;1.75;;;;;;;30.54;36.81;100263.23;1689488;84;21071;-70
2021/07/09 10:44:17;;;;;;;2.27;1.60;;;;;;;30.60;35.69;100260.03;1691249;84;21130;-71
2021/07/09 10:46:45;;;;;;;6.72;1.80;;;;;;;30.65;35.44;100257.27;1688143;84;22167;-71
2021/07/09 10:49:33;;;;;;;3.70;1.90;;;;;;;30.71;36.40;100246.97;1690789;84;21043;-70
2021/07/09 10:52:00;;;;;;;6.83;1.95;;;;;;;30.77;34.68;100245.20;1691058;84;21071;-70
2021/07/09 10:54:31;;;;;;;3.92;1.80;;;;;;;30.77;35.00;100239.52;1692103;83;21127;-70
2021/07/09 10:57:22;;;;;;;5.10;1.57;;;;;;;30.78;33.56;100235.42;1690899;84;21086;-70
2021/07/09 11:00:26;;;;;;;5.37;2.22;;;;;;;30.70;33.38;100227.70;1691338;83;21543;-71
2021/07/09 11:03:07;;;;;;;5.40;1.65;;;;;;;30.57;33.47;100231.86;1689139;84;21096;-70
2021/07/09 11:05:55;;;;;;;5.55;1.57;;;;;;;30.51;33.77;100232.21;1690589;83;21114;-72
2021/07/09 11:08:37;;;;;;;3.80;1.50;;;;;;;30.52;34.66;100230.18;1686860;84;20992;-70
2021/07/09 11:11:14;;;;;;;2.80;1.65;;;;;;;30.56;35.32;100228.84;1688371;84;21599;-70
2021/07/09 11:13:48;;;;;;;3.22;1.72;;;;;;;30.67;35.69;100232.86;1686269;84;20993;-71
2021/07/09 11:16:37;;;;;;;2.92;1.52;;;;;;;30.77;36.08;100226.73;1690927;84;21067;-72
2021/07/09 11:19:09;;;;;;;5.83;1.85;;;;;;;30.88;35.15;100220.00;1687896;84;21055;-71
2021/07/09 11:21:46;;;;;;;2.70;1.90;;;;;;;30.95;36.07;100219.19;1690790;84;21526;-71
2021/07/09 11:24:29;;;;;;;5.45;2.27;;;;;;;31.00;34.74;100220.69;1688732;84;21021;-71
2021/07/09 11:27:03;;;;;;;2.98;1.50;;;;;;;30.97;34.32;100215.90;1661548;84;21044;-70
2021/07/09 11:29:46;;;;;;;4.90;1.95;;;;;;;31.02;34.48;100218.20;1660276;84;21057;-71
2021/07/09 11:32:19;;;;;;;3.55;2.02;;;;;;;31.09;34.45;100212.95;1645364;86;21049;-70
2021/07/09 11:35:00;;;;;;;7.53;2.08;;;;;;;31.13;34.43;100198.02;1642481;86;21061;-71
2021/07/09 11:37:33;;;;;;;3.95;1.90;;;;;;;31.23;34.55;100204.66;1639375;85;21132;-71